Time;durP1;ratioP1;P1;durP2;ratioP2;P2;SDS_P1;SDS_P2;PMS_P1;PMS_P2;Temp;Humidity;BMP_temperature;BMP_pressure;BME280_temperature;BME280_humidity;BME280_pressure;Samples;Min_cycle;Max_cycle;Signal;HPM_P1;HPM_P2
2022/07/02 00:02:19;;;;;;;2.15;1.30;;;20.20;99.90;;;;;;5024508;28;20237;-84
2022/07/02 00:04:52;;;;;;;1.98;1.77;;;20.20;99.90;;;;;;5023811;28;20319;-84
2022/07/02 00:07:18;;;;;;;1.93;1.30;;;20.20;99.90;;;;;;5019825;28;20207;-84
2022/07/02 00:09:45;;;;;;;1.33;1.23;;;20.20;99.90;;;;;;5028858;28;20469;-85
2022/07/02 00:12:12;;;;;;;2.10;1.48;;;20.10;99.90;;;;;;5023056;28;20200;-85
2022/07/02 00:14:42;;;;;;;2.43;1.60;;;20.10;99.90;;;;;;5025755;28;20249;-85
2022/07/02 00:17:10;;;;;;;1.85;1.40;;;20.10;99.90;;;;;;5023779;28;20949;-85
2022/07/02 00:19:37;;;;;;;1.33;1.23;;;20.10;99.90;;;;;;5034127;28;20736;-85
2022/07/02 00:22:06;;;;;;;2.60;1.53;;;20.10;99.90;;;;;;5014637;28;20196;-85
2022/07/02 00:24:32;;;;;;;1.75;1.30;;;20.10;99.90;;;;;;5017283;28;20483;-85
2022/07/02 00:27:03;;;;;;;1.90;1.30;;;20.10;99.90;;;;;;5026951;28;20202;-85
2022/07/02 00:29:35;;;;;;;1.75;1.40;;;20.00;99.90;;;;;;5030612;28;20204;-84
2022/07/02 00:32:04;;;;;;;2.17;1.60;;;20.00;99.90;;;;;;5024716;28;20233;-85
2022/07/02 00:34:32;;;;;;;1.60;1.50;;;20.00;99.90;;;;;;5026938;28;20199;-84
2022/07/02 00:37:00;;;;;;;1.92;1.40;;;20.00;99.90;;;;;;5026841;28;20246;-85
2022/07/02 00:39:27;;;;;;;1.83;1.30;;;20.00;99.90;;;;;;5032053;28;20211;-85
2022/07/02 00:41:55;;;;;;;2.40;1.30;;;20.00;99.90;;;;;;5031836;28;20202;-85
2022/07/02 00:44:23;;;;;;;1.83;1.40;;;19.90;99.90;;;;;;5031947;28;20219;-85
2022/07/02 00:46:50;;;;;;;2.72;1.38;;;19.90;99.90;;;;;;5022930;28;20197;-85
2022/07/02 00:49:18;;;;;;;2.27;1.37;;;19.90;99.90;;;;;;5033996;28;20228;-86
2022/07/02 00:51:45;;;;;;;1.98;1.45;;;19.90;99.90;;;;;;5023088;28;20825;-86
2022/07/02 00:54:12;;;;;;;2.17;1.97;;;19.90;99.90;;;;;;5027247;28;20194;-85
2022/07/02 00:56:38;;;;;;;1.80;1.52;;;19.90;99.90;;;;;;5028423;28;20801;-85
2022/07/02 00:59:05;;;;;;;1.65;1.30;;;19.90;99.90;;;;;;5032929;28;20214;-85
2022/07/02 01:01:32;;;;;;;2.35;1.50;;;19.80;99.90;;;;;;5027280;28;20227;-85
2022/07/02 01:04:01;;;;;;;1.98;1.23;;;19.80;99.90;;;;;;5023671;28;20222;-85
2022/07/02 01:06:33;;;;;;;1.63;1.40;;;19.80;99.90;;;;;;5031649;28;20199;-85
2022/07/02 01:11:46;;;;;;;2.35;2.00;;;19.80;99.90;;;;;;5001735;28;20671;-85
2022/07/02 01:14:13;;;;;;;1.30;1.15;;;19.80;99.90;;;;;;5031850;28;20206;-85
2022/07/02 01:16:40;;;;;;;2.45;1.40;;;19.70;99.90;;;;;;5026811;28;20670;-85
2022/07/02 01:19:08;;;;;;;1.80;1.35;;;19.70;99.90;;;;;;5030418;28;20201;-84
2022/07/02 01:21:38;;;;;;;4.97;1.55;;;19.70;99.90;;;;;;5028603;28;20279;-85
2022/07/02 01:24:07;;;;;;;2.42;1.70;;;19.70;99.90;;;;;;5023468;28;20217;-85
2022/07/02 01:26:33;;;;;;;1.42;1.20;;;19.70;99.90;;;;;;5025290;28;20198;-85
2022/07/02 01:29:00;;;;;;;2.33;1.50;;;19.70;99.90;;;;;;5032360;28;20213;-85
2022/07/02 01:31:27;;;;;;;2.00;1.40;;;19.70;99.90;;;;;;5023109;28;20208;-85
2022/07/02 01:33:54;;;;;;;1.80;1.70;;;19.60;99.90;;;;;;5021460;28;20195;-85
2022/07/02 01:36:20;;;;;;;1.70;1.40;;;19.60;99.90;;;;;;5023820;28;20558;-85
2022/07/02 01:38:48;;;;;;;1.50;1.15;;;19.60;99.90;;;;;;5019832;28;20206;-85
2022/07/02 01:44:01;;;;;;;2.25;1.38;;;19.60;99.90;;;;;;5020479;28;20217;-85
2022/07/02 01:46:27;;;;;;;1.52;1.35;;;19.60;99.90;;;;;;5025315;28;20486;-84
2022/07/02 01:48:54;;;;;;;1.58;1.40;;;19.50;99.90;;;;;;5026570;28;20213;-85
2022/07/02 01:51:21;;;;;;;2.50;1.70;;;19.50;99.90;;;;;;5018507;28;20195;-85
2022/07/02 01:53:47;;;;;;;2.35;1.58;;;19.50;99.90;;;;;;5015116;28;20198;-85
2022/07/02 01:56:16;;;;;;;2.90;1.30;;;19.50;99.90;;;;;;5032392;28;20658;-84
2022/07/02 01:58:43;;;;;;;3.05;1.70;;;19.50;99.90;;;;;;5031540;28;20205;-85
2022/07/02 02:01:10;;;;;;;2.60;1.73;;;19.50;99.90;;;;;;5030552;28;20543;-86
2022/07/02 02:03:37;;;;;;;13.02;12.38;;;19.50;99.90;;;;;;5022504;28;20247;-85
2022/07/02 02:06:04;;;;;;;32.35;31.17;;;19.40;99.90;;;;;;5026899;28;20593;-84
2022/07/02 02:08:31;;;;;;;8.05;7.65;;;19.40;99.90;;;;;;5029247;28;20235;-85
2022/07/02 02:10:58;;;;;;;34.15;32.92;;;19.40;99.90;;;;;;5031857;28;20207;-85
2022/07/02 02:13:26;;;;;;;2.92;2.33;;;19.40;99.90;;;;;;5027102;28;20654;-85
2022/07/02 02:15:53;;;;;;;9.95;9.10;;;19.40;99.90;;;;;;5025458;28;20198;-85
2022/07/02 02:18:20;;;;;;;6.10;5.75;;;19.40;99.90;;;;;;5025329;28;20205;-85
2022/07/02 02:20:46;;;;;;;2.78;1.73;;;19.30;99.90;;;;;;5024765;28;20272;-88
2022/07/02 02:23:13;;;;;;;14.65;13.45;;;19.30;99.90;;;;;;5034840;28;20209;-85
2022/07/02 02:25:40;;;;;;;2.42;1.50;;;19.30;99.90;;;;;;5038366;28;20681;-86
2022/07/02 02:28:06;;;;;;;3.10;2.10;;;19.30;99.90;;;;;;5047701;28;20207;-86
2022/07/02 02:30:34;;;;;;;2.00;1.80;;;19.30;99.90;;;;;;5042009;28;20205;-86
2022/07/02 02:33:01;;;;;;;2.40;2.20;;;19.30;99.90;;;;;;5043530;28;20212;-85
2022/07/02 02:35:28;;;;;;;1.65;1.48;;;19.20;99.90;;;;;;5036320;28;20631;-86
2022/07/02 02:37:55;;;;;;;2.20;1.80;;;19.20;99.90;;;;;;5037716;28;20662;-86
2022/07/02 02:40:22;;;;;;;4.03;1.98;;;19.20;99.90;;;;;;5042253;28;20200;-86
2022/07/02 02:42:49;;;;;;;2.42;1.75;;;19.20;99.90;;;;;;5029448;28;20209;-85
2022/07/02 02:45:15;;;;;;;4.30;1.33;;;19.20;99.90;;;;;;5038624;28;20657;-86
2022/07/02 02:47:43;;;;;;;2.25;1.60;;;19.20;99.90;;;;;;5044283;28;20223;-85
2022/07/02 02:50:10;;;;;;;2.28;1.98;;;19.20;99.90;;;;;;5032138;28;20661;-80
2022/07/02 02:52:37;;;;;;;2.00;1.50;;;19.10;99.90;;;;;;5021090;28;20205;-82
2022/07/02 02:55:04;;;;;;;2.67;1.65;;;19.10;99.90;;;;;;5023854;28;20196;-80
2022/07/02 02:57:31;;;;;;;1.85;1.65;;;19.10;99.90;;;;;;5023207;28;20198;-81
2022/07/02 02:59:58;;;;;;;2.58;1.67;;;19.10;99.90;;;;;;5031088;28;20229;-80
2022/07/02 03:02:25;;;;;;;1.75;1.40;;;19.10;99.90;;;;;;5026610;28;20628;-80
2022/07/02 03:04:53;;;;;;;2.33;1.40;;;19.10;99.90;;;;;;5023631;28;20698;-80
2022/07/02 03:07:20;;;;;;;3.20;1.90;;;19.10;99.90;;;;;;5025935;28;20202;-80
2022/07/02 03:09:47;;;;;;;2.92;1.50;;;19.10;99.90;;;;;;5030136;28;20208;-80
2022/07/02 03:12:13;;;;;;;1.70;1.60;;;19.00;99.90;;;;;;5018925;28;20200;-81
2022/07/02 03:14:40;;;;;;;2.70;1.20;;;19.00;99.90;;;;;;5024738;28;20198;-80
2022/07/02 03:17:07;;;;;;;1.95;1.75;;;19.00;99.90;;;;;;5026722;28;20202;-80
2022/07/02 03:19:34;;;;;;;2.58;1.58;;;19.00;99.90;;;;;;5022778;28;20206;-81
2022/07/02 03:22:02;;;;;;;2.30;1.48;;;19.00;99.90;;;;;;5016860;28;20198;-80
2022/07/02 03:24:28;;;;;;;1.90;1.50;;;19.00;99.90;;;;;;5023646;28;20216;-80
2022/07/02 03:26:55;;;;;;;1.67;1.38;;;18.90;99.90;;;;;;5020016;28;20197;-80
2022/07/02 03:29:22;;;;;;;2.05;1.52;;;18.90;99.90;;;;;;5023047;28;20220;-80
2022/07/02 03:31:49;;;;;;;2.05;1.75;;;18.90;99.90;;;;;;5024730;28;20212;-80
2022/07/02 03:34:15;;;;;;;2.85;1.77;;;18.90;99.90;;;;;;5027425;28;20205;-82
2022/07/02 03:36:42;;;;;;;1.70;1.30;;;18.90;99.90;;;;;;5029914;28;20720;-79
2022/07/02 03:39:10;;;;;;;1.55;1.23;;;18.90;99.90;;;;;;5030316;28;20208;-80
2022/07/02 03:41:37;;;;;;;1.73;1.25;;;18.90;99.90;;;;;;5028479;28;20209;-80
2022/07/02 03:44:04;;;;;;;2.20;1.65;;;18.80;99.90;;;;;;5026076;28;20663;-81
2022/07/02 03:46:31;;;;;;;5.13;2.85;;;18.80;99.90;;;;;;5024863;28;20215;-79
2022/07/02 03:48:57;;;;;;;4.65;1.58;;;18.80;99.90;;;;;;5019566;28;20210;-80
2022/07/02 03:51:24;;;;;;;1.70;1.05;;;18.80;99.90;;;;;;5026433;28;20206;-80
2022/07/02 03:53:51;;;;;;;1.63;1.35;;;18.80;99.90;;;;;;5029059;28;20605;-80
2022/07/02 03:56:19;;;;;;;1.63;1.35;;;18.80;99.90;;;;;;5034707;28;20190;-80
2022/07/02 03:58:46;;;;;;;1.65;1.45;;;18.80;99.90;;;;;;5032476;28;20232;-80
2022/07/02 04:01:13;;;;;;;2.10;1.90;;;18.80;99.90;;;;;;5024843;28;20563;-80
2022/07/02 04:03:39;;;;;;;1.58;1.48;;;18.80;99.90;;;;;;5017232;28;20610;-80
2022/07/02 04:06:06;;;;;;;2.65;1.45;;;18.70;99.90;;;;;;5032835;28;20216;-81
2022/07/02 04:08:33;;;;;;;1.50;1.35;;;18.80;99.90;;;;;;5024435;28;20228;-80
2022/07/02 04:11:00;;;;;;;2.55;1.20;;;18.70;99.90;;;;;;5019221;28;20200;-85
2022/07/02 04:13:28;;;;;;;2.42;1.55;;;18.70;99.90;;;;;;5032619;28;20217;-80
2022/07/02 04:15:55;;;;;;;1.63;1.20;;;18.70;99.90;;;;;;5029392;28;20215;-80
2022/07/02 04:18:22;;;;;;;3.58;1.92;;;18.70;99.90;;;;;;5024018;28;20227;-81
2022/07/02 04:20:49;;;;;;;4.13;1.70;;;18.70;99.90;;;;;;5033757;28;20196;-80
2022/07/02 04:23:16;;;;;;;3.08;2.00;;;18.70;99.90;;;;;;5025470;28;20607;-81
2022/07/02 04:25:42;;;;;;;1.65;1.52;;;18.70;99.90;;;;;;5024356;28;20216;-82
2022/07/02 04:28:10;;;;;;;2.67;1.80;;;18.70;99.90;;;;;;5028555;28;20203;-81
2022/07/02 04:30:38;;;;;;;2.42;1.70;;;18.70;99.90;;;;;;5022890;28;20217;-80
2022/07/02 04:33:05;;;;;;;2.00;1.50;;;18.70;99.90;;;;;;5019907;28;20203;-80
2022/07/02 04:35:32;;;;;;;1.50;1.20;;;18.70;99.90;;;;;;5026566;28;20193;-80
2022/07/02 04:37:59;;;;;;;1.50;1.27;;;18.70;99.90;;;;;;5033939;28;20266;-81
2022/07/02 04:40:26;;;;;;;2.30;1.60;;;18.60;99.90;;;;;;5033072;28;20200;-80
2022/07/02 04:42:52;;;;;;;2.33;1.83;;;18.60;99.90;;;;;;5019441;28;20204;-80
2022/07/02 04:45:19;;;;;;;1.48;1.38;;;18.60;99.90;;;;;;5027721;28;20717;-80
2022/07/02 04:47:47;;;;;;;1.50;1.40;;;18.60;99.90;;;;;;5024720;28;20198;-81
2022/07/02 04:50:14;;;;;;;1.77;1.50;;;18.60;99.90;;;;;;5025283;28;20193;-80
2022/07/02 04:52:41;;;;;;;4.10;1.45;;;18.60;99.90;;;;;;5028611;28;20209;-80
2022/07/02 04:55:08;;;;;;;1.35;1.10;;;18.60;99.90;;;;;;5033110;28;20640;-81
2022/07/02 04:57:34;;;;;;;2.17;1.50;;;18.60;99.90;;;;;;5033222;28;20197;-79
2022/07/02 05:00:01;;;;;;;1.63;1.20;;;18.60;99.90;;;;;;5033685;28;20203;-81
2022/07/02 05:02:28;;;;;;;1.80;1.50;;;18.60;99.90;;;;;;5026604;28;20683;-81
2022/07/02 05:04:57;;;;;;;2.38;1.58;;;18.60;99.90;;;;;;5029878;28;20265;-81
2022/07/02 05:07:23;;;;;;;2.20;1.20;;;18.60;99.90;;;;;;5022679;28;20196;-81
2022/07/02 05:09:50;;;;;;;2.38;1.40;;;18.60;99.90;;;;;;5031061;28;20208;-80
2022/07/02 05:12:17;;;;;;;2.33;1.30;;;18.60;99.90;;;;;;5030997;28;20192;-80
2022/07/02 05:14:43;;;;;;;1.73;1.50;;;18.60;99.90;;;;;;5031274;28;20198;-81
2022/07/02 05:17:10;;;;;;;1.63;1.35;;;18.60;99.90;;;;;;5028015;28;20257;-80
2022/07/02 05:19:37;;;;;;;2.35;1.80;;;18.60;99.90;;;;;;5031962;28;20196;-81
2022/07/02 05:22:05;;;;;;;1.20;1.10;;;18.60;99.90;;;;;;5024151;28;20203;-80
2022/07/02 05:24:32;;;;;;;1.60;1.33;;;18.60;99.90;;;;;;5024517;28;20255;-81
2022/07/02 05:26:59;;;;;;;1.40;1.10;;;18.60;99.90;;;;;;5031604;28;20659;-80
2022/07/02 05:29:25;;;;;;;2.47;1.83;;;18.60;99.90;;;;;;5028563;28;20216;-80
2022/07/02 05:31:52;;;;;;;1.30;1.20;;;18.60;99.90;;;;;;5025490;28;20664;-80
2022/07/02 05:34:19;;;;;;;2.78;1.38;;;18.70;99.90;;;;;;5019394;28;20631;-80
2022/07/02 05:36:47;;;;;;;4.65;1.50;;;18.80;99.90;;;;;;5033078;28;20208;-80
2022/07/02 05:39:15;;;;;;;1.85;1.55;;;19.00;99.90;;;;;;5025741;28;20210;-80
2022/07/02 05:41:42;;;;;;;1.90;1.55;;;19.30;99.90;;;;;;5029214;28;20205;-81
2022/07/02 05:44:09;;;;;;;2.58;2.00;;;19.60;99.90;;;;;;5020964;28;20225;-80
2022/07/02 05:46:35;;;;;;;1.55;1.45;;;20.00;99.90;;;;;;5027173;28;20222;-83
2022/07/02 05:49:02;;;;;;;4.97;4.57;;;20.30;99.90;;;;;;5019465;28;20206;-81
2022/07/02 05:51:29;;;;;;;3.08;2.33;;;20.50;99.90;;;;;;5032720;28;20680;-80
2022/07/02 05:53:56;;;;;;;4.53;4.22;;;20.70;99.90;;;;;;5017639;28;20206;-80
2022/07/02 05:56:24;;;;;;;4.03;3.83;;;20.90;99.90;;;;;;5026340;28;20199;-80
2022/07/02 05:58:50;;;;;;;408.67;392.58;;;21.10;99.90;;;;;;5031568;28;20459;-79
2022/07/02 06:01:17;;;;;;;478.40;457.95;;;21.20;99.90;;;;;;5025858;28;20705;-79
2022/07/02 06:03:44;;;;;;;363.10;350.03;;;21.30;99.90;;;;;;5023778;28;20205;-79
2022/07/02 06:08:55;;;;;;;1.57;1.10;;;21.50;99.90;;;;;;5025682;28;20500;-80
2022/07/02 06:11:21;;;;;;;41.40;40.03;;;21.60;99.90;;;;;;5027076;28;20460;-79
2022/07/02 06:13:49;;;;;;;1.20;1.00;;;21.70;99.90;;;;;;5030083;28;20810;-80
2022/07/02 06:16:16;;;;;;;1.60;1.50;;;21.80;99.90;;;;;;5031209;28;20975;-80
2022/07/02 06:18:43;;;;;;;2.53;1.33;;;21.90;99.90;;;;;;5021630;28;20454;-80
2022/07/02 06:21:10;;;;;;;2.10;1.40;;;22.00;99.90;;;;;;5026598;28;20469;-79
2022/07/02 06:23:36;;;;;;;1.43;1.00;;;22.10;99.90;;;;;;5026948;28;20461;-79
2022/07/02 06:26:03;;;;;;;2.00;1.60;;;22.20;99.90;;;;;;5030758;28;20993;-79
2022/07/02 06:28:30;;;;;;;3.73;3.53;;;22.30;99.90;;;;;;5026460;28;20471;-78
2022/07/02 06:30:58;;;;;;;51.73;50.07;;;22.40;99.90;;;;;;5025291;28;20969;-79
2022/07/02 06:33:24;;;;;;;3.43;3.23;;;22.40;99.80;;;;;;5024805;28;20471;-78
2022/07/02 06:35:51;;;;;;;1.30;1.10;;;22.50;99.70;;;;;;5026980;28;20940;-79
2022/07/02 06:38:18;;;;;;;2.13;1.30;;;22.60;99.40;;;;;;5024238;28;20466;-80
2022/07/02 06:40:45;;;;;;;1.80;1.00;;;22.60;99.30;;;;;;5029244;28;20517;-79
2022/07/02 06:43:10;;;;;;;2.33;1.90;;;22.60;99.00;;;;;;5024365;28;20462;-80
2022/07/02 06:45:37;;;;;;;5.63;5.33;;;22.70;98.90;;;;;;5025745;28;20534;-79
2022/07/02 06:48:05;;;;;;;3.33;3.17;;;22.80;98.70;;;;;;5030326;28;20196;-80
2022/07/02 06:50:32;;;;;;;2.83;2.63;;;22.90;98.60;;;;;;5018306;28;20447;-78
2022/07/02 06:52:59;;;;;;;1.33;1.20;;;22.90;98.40;;;;;;5025731;28;20818;-78
2022/07/02 06:55:26;;;;;;;1.83;1.60;;;23.00;98.20;;;;;;5025578;28;20442;-80
2022/07/02 06:57:52;;;;;;;1.73;1.27;;;23.10;98.10;;;;;;5031080;28;20973;-78
2022/07/02 07:00:21;;;;;;;1.10;0.90;;;23.10;97.80;;;;;;5027354;28;20466;-79
2022/07/02 07:02:48;;;;;;;1.80;1.30;;;23.20;97.70;;;;;;5024357;28;20470;-81
2022/07/02 07:05:16;;;;;;;1.17;0.90;;;23.30;97.50;;;;;;5025975;28;20838;-79
2022/07/02 07:07:43;;;;;;;1.60;1.00;;;23.30;97.40;;;;;;5020777;28;20467;-78
2022/07/02 07:10:10;;;;;;;1.93;1.70;;;23.40;97.30;;;;;;5024040;28;20489;-80
2022/07/02 07:12:37;;;;;;;1.40;1.07;;;23.50;97.20;;;;;;5028114;28;20462;-80
2022/07/02 07:15:06;;;;;;;2.20;1.60;;;23.50;97.00;;;;;;5029723;28;20465;-80
2022/07/02 07:17:34;;;;;;;1.20;1.00;;;23.60;96.90;;;;;;5026773;28;20465;-79
2022/07/02 07:20:00;;;;;;;3.10;2.90;;;23.70;96.80;;;;;;5017406;28;20565;-80
2022/07/02 07:22:28;;;;;;;3.83;3.63;;;23.70;96.60;;;;;;5028282;28;20553;-78
2022/07/02 07:24:55;;;;;;;1.13;1.03;;;23.80;96.40;;;;;;5022304;28;20443;-79
2022/07/02 07:27:22;;;;;;;2.33;1.77;;;23.80;96.30;;;;;;5028938;28;20969;-81
2022/07/02 07:29:48;;;;;;;5.90;5.60;;;23.90;96.20;;;;;;5031293;28;20509;-79
2022/07/02 07:32:15;;;;;;;112.77;109.03;;;23.90;96.10;;;;;;5022408;28;20439;-80
2022/07/02 07:34:42;;;;;;;4.50;4.30;;;24.00;96.00;;;;;;5029347;28;20447;-81
2022/07/02 07:37:09;;;;;;;1.87;1.43;;;24.00;95.90;;;;;;5034238;28;20953;-82
2022/07/02 07:39:37;;;;;;;1.10;0.80;;;24.10;95.80;;;;;;5034796;28;20430;-82
2022/07/02 07:42:04;;;;;;;1.67;1.00;;;24.10;95.60;;;;;;5026395;28;20450;-82
2022/07/02 07:44:32;;;;;;;1.20;0.80;;;24.20;95.60;;;;;;5025957;28;20477;-82
2022/07/02 07:46:59;;;;;;;1.00;0.80;;;24.20;95.40;;;;;;5032182;28;20984;-82
2022/07/02 07:49:26;;;;;;;1.63;1.40;;;24.30;95.30;;;;;;5022239;28;20462;-80
2022/07/02 07:51:52;;;;;;;1.20;0.90;;;24.30;95.20;;;;;;5033989;28;20445;-83
2022/07/02 07:54:19;;;;;;;8.67;8.13;;;24.40;95.00;;;;;;5027576;28;20983;-81
2022/07/02 07:56:47;;;;;;;4.00;3.33;;;24.40;94.90;;;;;;5025862;28;21004;-82
2022/07/02 07:59:14;;;;;;;1.30;0.80;;;24.40;94.90;;;;;;5034972;28;20454;-81
2022/07/02 08:01:40;;;;;;;64.03;61.50;;;24.50;94.80;;;;;;5026181;28;20474;-81
2022/07/02 08:04:07;;;;;;;1.73;1.63;;;24.50;94.80;;;;;;5028985;28;20633;-80
2022/07/02 08:06:34;;;;;;;1.20;0.80;;;24.50;94.70;;;;;;5034834;28;20805;-80
2022/07/02 08:09:01;;;;;;;1.57;0.80;;;24.60;94.70;;;;;;5022293;28;20464;-83
2022/07/02 08:11:28;;;;;;;1.67;1.03;;;24.60;94.50;;;;;;5023426;28;20854;-81
2022/07/02 08:13:57;;;;;;;1.20;0.90;;;24.60;94.30;;;;;;5022015;28;20459;-82
2022/07/02 08:16:24;;;;;;;1.10;0.90;;;24.70;94.40;;;;;;5031181;28;20458;-80
2022/07/02 08:18:51;;;;;;;1.10;0.80;;;24.80;94.20;;;;;;5031481;28;21084;-80
2022/07/02 08:21:19;;;;;;;1.43;1.00;;;24.80;94.10;;;;;;5031389;28;20454;-82
2022/07/02 08:23:46;;;;;;;1.67;1.57;;;24.80;94.00;;;;;;5023042;28;20467;-79
2022/07/02 08:26:12;;;;;;;2.13;0.90;;;24.80;93.90;;;;;;5025757;28;20474;-79
2022/07/02 08:28:39;;;;;;;1.00;0.70;;;24.80;93.80;;;;;;5033543;28;20458;-81
2022/07/02 08:31:07;;;;;;;1.00;0.80;;;24.90;93.80;;;;;;5023270;28;20493;-80
2022/07/02 08:33:34;;;;;;;1.40;0.83;;;24.90;93.60;;;;;;5030876;28;20979;-82
2022/07/02 08:36:01;;;;;;;0.90;0.70;;;24.90;93.50;;;;;;5033099;28;20435;-81
2022/07/02 08:38:28;;;;;;;1.87;0.90;;;24.90;93.30;;;;;;5027635;28;20536;-81
2022/07/02 08:40:55;;;;;;;1.23;0.90;;;24.90;93.30;;;;;;5032181;28;20967;-80
2022/07/02 08:43:26;;;;;;;1.10;0.80;;;24.90;93.30;;;;;;5023399;28;20471;-81
2022/07/02 08:45:53;;;;;;;1.20;0.70;;;25.00;93.20;;;;;;5026444;28;20564;-80
2022/07/02 08:48:23;;;;;;;1.10;0.80;;;25.00;92.80;;;;;;5027419;28;20450;-80
2022/07/02 08:50:51;;;;;;;1.23;0.80;;;24.90;92.70;;;;;;5025426;28;20458;-80
2022/07/02 08:53:19;;;;;;;1.40;1.00;;;24.70;93.20;;;;;;5030580;28;20455;-82
2022/07/02 08:55:50;;;;;;;1.30;0.73;;;24.70;93.50;;;;;;5023632;28;20439;-79
2022/07/02 08:58:18;;;;;;;1.60;0.97;;;24.70;93.30;;;;;;5027301;28;20465;-80
2022/07/02 09:00:45;;;;;;;0.90;0.70;;;24.70;93.20;;;;;;5031272;28;20461;-79
2022/07/02 09:03:14;;;;;;;1.60;0.90;;;24.60;93.30;;;;;;5017572;28;20977;-80
2022/07/02 09:05:43;;;;;;;1.10;0.70;;;24.50;93.60;;;;;;5033507;28;20811;-81
2022/07/02 09:08:11;;;;;;;1.10;0.87;;;24.50;93.80;;;;;;5023864;28;20829;-81
2022/07/02 09:10:39;;;;;;;1.10;0.80;;;24.60;93.60;;;;;;5025863;28;20472;-83
2022/07/02 09:13:07;;;;;;;1.03;0.73;;;24.80;93.30;;;;;;5026813;28;20470;-80
2022/07/02 09:15:35;;;;;;;1.90;0.70;;;24.90;93.10;;;;;;5024348;28;20459;-82
2022/07/02 09:18:02;;;;;;;1.00;0.70;;;25.00;92.80;;;;;;5015641;28;20542;-81
2022/07/02 09:20:29;;;;;;;1.87;0.80;;;25.10;92.60;;;;;;5022596;28;20798;-80
2022/07/02 09:22:57;;;;;;;1.00;0.70;;;25.10;92.60;;;;;;5023534;28;20467;-80
2022/07/02 09:25:26;;;;;;;1.00;0.80;;;24.90;92.50;;;;;;5018172;28;20458;-81
2022/07/02 09:27:58;;;;;;;1.00;0.80;;;24.60;92.90;;;;;;5027487;28;20894;-81
2022/07/02 09:30:25;;;;;;;1.10;0.90;;;24.50;93.20;;;;;;5016388;28;20487;-80
2022/07/02 09:33:28;;;;;;;1.40;0.90;;;24.60;93.30;;;;;;5022082;28;20818;-80
2022/07/02 09:35:39;;;;;;;2.07;1.80;;;24.60;93.20;;;;;;5023729;28;20458;-82
2022/07/02 09:38:11;;;;;;;1.00;0.70;;;24.50;93.20;;;;;;5021132;28;20482;-80
2022/07/02 09:40:37;;;;;;;9.43;8.93;;;24.50;93.20;;;;;;5016518;28;20590;-83
2022/07/02 09:43:04;;;;;;;1.43;0.90;;;24.40;93.50;;;;;;5024393;28;20474;-80
2022/07/02 09:45:31;;;;;;;1.20;0.90;;;24.20;93.60;;;;;;5018435;28;20466;-81
2022/07/02 09:48:03;;;;;;;1.27;0.83;;;24.20;93.90;;;;;;5020788;28;20993;-81
2022/07/02 09:50:29;;;;;;;1.00;0.70;;;24.20;93.90;;;;;;5023529;28;20521;-81
2022/07/02 09:52:58;;;;;;;1.20;0.87;;;24.10;94.00;;;;;;5021192;28;21633;-82
2022/07/02 09:55:29;;;;;;;1.27;0.70;;;24.10;94.10;;;;;;5018697;28;20467;-79
2022/07/02 09:57:57;;;;;;;1.40;0.80;;;24.00;94.20;;;;;;5021393;28;20459;-81
2022/07/02 10:00:25;;;;;;;1.00;0.80;;;24.00;94.30;;;;;;5021046;28;20466;-80
2022/07/02 10:02:55;;;;;;;0.90;0.60;;;24.10;94.20;;;;;;5024524;28;20565;-81
2022/07/02 10:05:26;;;;;;;1.00;0.70;;;24.20;94.00;;;;;;5027680;28;20455;-80
2022/07/02 10:07:54;;;;;;;1.00;0.70;;;24.30;93.90;;;;;;5021283;28;20578;-82
2022/07/02 10:10:35;;;;;;;2.13;1.00;;;24.40;93.70;;;;;;5014227;28;20479;-79
2022/07/02 10:13:01;;;;;;;1.13;0.70;;;24.40;93.50;;;;;;5025796;28;20533;-79
2022/07/02 10:15:31;;;;;;;2.70;0.80;;;24.40;93.10;;;;;;5022293;28;20490;-79
2022/07/02 10:17:59;;;;;;;1.00;0.70;;;24.50;93.40;;;;;;5025291;28;20467;-81
2022/07/02 10:20:25;;;;;;;1.10;0.77;;;24.50;93.30;;;;;;5028162;28;20818;-82
2022/07/02 10:22:52;;;;;;;1.00;0.70;;;24.50;93.00;;;;;;5021958;28;20528;-79
2022/07/02 10:25:20;;;;;;;0.90;0.70;;;24.50;93.20;;;;;;5017870;28;20954;-82
2022/07/02 10:27:51;;;;;;;0.90;0.70;;;24.50;93.10;;;;;;5027152;28;20488;-83
2022/07/02 10:30:18;;;;;;;1.20;0.80;;;24.50;93.00;;;;;;5016434;28;20502;-80
2022/07/02 10:32:57;;;;;;;1.10;0.70;;;24.40;92.70;;;;;;5022560;28;20494;-81
2022/07/02 10:35:25;;;;;;;1.27;0.80;;;24.30;93.00;;;;;;5019425;28;20470;-80
2022/07/02 10:37:58;;;;;;;2.20;0.90;;;24.30;93.20;;;;;;5026575;28;20553;-79
2022/07/02 10:40:25;;;;;;;1.37;0.80;;;24.30;93.20;;;;;;5022083;28;20996;-80
2022/07/02 10:42:57;;;;;;;1.77;0.90;;;24.20;93.20;;;;;;5017268;28;20466;-80
2022/07/02 10:45:25;;;;;;;1.43;0.80;;;24.20;93.50;;;;;;5027336;28;20474;-80
2022/07/02 10:48:01;;;;;;;0.90;0.60;;;24.10;93.50;;;;;;5012895;28;20863;-80
2022/07/02 10:50:39;;;;;;;0.97;0.70;;;24.10;92.80;;;;;;5021629;28;20466;-80
2022/07/02 10:53:12;;;;;;;1.10;0.80;;;24.10;93.30;;;;;;5021067;28;20462;-80
2022/07/02 10:55:40;;;;;;;1.10;0.70;;;24.10;93.50;;;;;;5023000;28;20470;-79
2022/07/02 10:58:09;;;;;;;1.03;0.80;;;24.10;93.50;;;;;;5029067;28;20949;-81
2022/07/02 11:00:38;;;;;;;1.07;0.80;;;24.10;93.20;;;;;;5020133;28;20467;-80
2022/07/02 11:03:13;;;;;;;1.27;0.87;;;24.10;93.20;;;;;;5017252;28;20485;-82
2022/07/02 11:06:19;;;;;;;0.97;0.60;;;24.10;93.20;;;;;;5026122;28;20446;-79
2022/07/02 11:08:55;;;;;;;1.20;0.70;;;24.10;93.30;;;;;;4978691;28;20458;-81
2022/07/02 11:11:39;;;;;;;1.00;0.80;;;24.10;93.40;;;;;;5016846;28;21142;-81
2022/07/02 11:14:09;;;;;;;0.93;0.70;;;24.10;92.90;;;;;;5023647;28;20490;-82
2022/07/02 11:16:38;;;;;;;1.43;0.70;;;24.10;93.20;;;;;;5027769;28;20458;-81
2022/07/02 11:19:05;;;;;;;3.13;0.83;;;24.10;93.20;;;;;;5020762;28;20473;-81
2022/07/02 11:21:33;;;;;;;0.90;0.70;;;24.10;93.20;;;;;;5020482;28;20842;-80
2022/07/02 11:24:00;;;;;;;1.10;0.67;;;24.00;93.10;;;;;;5016488;28;20474;-80
2022/07/02 11:26:28;;;;;;;2.20;0.70;;;24.00;93.30;;;;;;5010149;28;20463;-81
2022/07/02 11:28:55;;;;;;;1.00;0.70;;;24.00;93.00;;;;;;5022980;28;20470;-81
2022/07/02 11:31:24;;;;;;;1.00;0.70;;;24.00;93.10;;;;;;5016117;28;20473;-81
2022/07/02 11:33:52;;;;;;;1.10;0.80;;;24.00;93.30;;;;;;5016806;28;20842;-80
2022/07/02 11:36:20;;;;;;;3.50;1.23;;;24.00;93.20;;;;;;5026717;28;20932;-80
2022/07/02 11:38:49;;;;;;;1.17;0.77;;;24.00;93.20;;;;;;5019383;28;20446;-80
2022/07/02 11:41:21;;;;;;;1.20;0.70;;;23.90;93.30;;;;;;5017926;28;20463;-83
2022/07/02 11:43:49;;;;;;;1.17;0.70;;;23.90;93.80;;;;;;5022290;28;20471;-81
2022/07/02 11:46:18;;;;;;;1.00;0.80;;;23.90;93.00;;;;;;5028280;28;20475;-79
2022/07/02 11:48:47;;;;;;;1.50;0.70;;;23.90;93.20;;;;;;5018079;28;20860;-83
2022/07/02 11:51:14;;;;;;;0.90;0.60;;;23.90;93.20;;;;;;5021269;28;20891;-79
2022/07/02 11:53:42;;;;;;;1.03;0.70;;;23.90;92.70;;;;;;5018556;28;20454;-79
2022/07/02 11:56:12;;;;;;;1.13;0.80;;;23.80;93.10;;;;;;5024005;28;20439;-79
2022/07/02 11:58:43;;;;;;;1.10;0.80;;;23.80;92.90;;;;;;5015572;28;21082;-80
2022/07/02 12:01:20;;;;;;;1.20;0.80;;;23.80;93.50;;;;;;5022975;28;20965;-80
2022/07/02 12:03:50;;;;;;;1.93;0.70;;;23.80;93.00;;;;;;5018394;28;20835;-81
2022/07/02 12:06:17;;;;;;;1.00;0.60;;;23.80;92.20;;;;;;5027985;28;20445;-80
2022/07/02 12:08:44;;;;;;;3.23;1.03;;;23.80;92.60;;;;;;5013852;28;20908;-81
2022/07/02 12:11:12;;;;;;;0.90;0.60;;;23.80;92.90;;;;;;5021657;28;20470;-82
2022/07/02 12:13:39;;;;;;;1.17;0.70;;;23.80;93.00;;;;;;5020981;28;20593;-79
2022/07/02 12:16:09;;;;;;;1.30;0.80;;;23.80;92.80;;;;;;5022924;28;20462;-81
2022/07/02 12:18:36;;;;;;;0.90;0.73;;;23.80;92.10;;;;;;5027963;28;20461;-80
2022/07/02 12:21:10;;;;;;;1.50;0.60;;;23.80;92.90;;;;;;5026859;28;20489;-81
2022/07/02 12:23:48;;;;;;;0.80;0.60;;;23.80;92.90;;;;;;5019154;28;20934;-81
2022/07/02 12:26:23;;;;;;;0.90;0.63;;;23.80;92.90;;;;;;5031534;28;20454;-81
2022/07/02 12:31:44;;;;;;;0.90;0.60;;;23.80;93.00;;;;;;5027098;28;20596;-80
2022/07/02 12:34:11;;;;;;;1.03;0.93;;;23.80;92.90;;;;;;5012257;28;20469;-81
2022/07/02 12:36:56;;;;;;;2.80;0.77;;;23.90;92.90;;;;;;5024251;28;20464;-85
2022/07/02 12:39:25;;;;;;;1.37;0.80;;;23.90;92.70;;;;;;5028162;28;20439;-80
2022/07/02 12:41:52;;;;;;;1.07;0.63;;;23.90;92.70;;;;;;5023522;28;20431;-80
2022/07/02 12:44:21;;;;;;;1.00;0.60;;;23.90;92.80;;;;;;5024673;28;20450;-80
2022/07/02 12:46:49;;;;;;;0.90;0.63;;;23.90;92.90;;;;;;5024326;28;20533;-81
2022/07/02 12:49:21;;;;;;;1.20;0.90;;;23.90;92.90;;;;;;5022617;28;20482;-80
2022/07/02 12:52:00;;;;;;;1.67;0.80;;;23.90;92.90;;;;;;5019779;28;20466;-80
2022/07/02 12:54:37;;;;;;;1.10;0.60;;;23.90;92.90;;;;;;5025484;28;21024;-79
2022/07/02 12:57:14;;;;;;;1.00;0.70;;;23.90;92.80;;;;;;5024436;28;20473;-81
2022/07/02 12:59:41;;;;;;;1.87;0.70;;;23.90;92.80;;;;;;5031067;28;20431;-80
2022/07/02 13:02:13;;;;;;;1.10;0.70;;;23.90;92.80;;;;;;5017620;28;20486;-81